Etusivu
METAR-TAF:

METAR-TAF

Lentoasemat :

Kasumigaura, Japani

Leveyspiiri: 36-02N, Pituuspiiri: 140-12E, korkeus merenpinnasta: 26 m

Tämänhetkinen sää

Tämä raportti tehtiin 17 tuntia ja 30 minuuttia sitten, kello 06.23 UTC
Tuuli 3 kn koillisesta
Lämpötila 25°C
Kosteus 65%
Ilmanpaine 1001 hPa
Näkyvyys 10 km tai enemmän
Muutamia pilviä 1500 ft:n korkeudessa
Hajonneita pilviä 2000 ft:n korkeudessa

METAR: RJAK 250623Z 04003KT 9999 FEW015 BKN020 25/18 Q1001 RMK 1CU015 5CU020 A2956

Aika: 08:53 (23:53 UTC)


TAF: puuttuu

Säähavainnot ja -ennusteet yli 4000 lentoasemalta (METAR- ja TAF-raportit).

Käytössä olevat sääasemat on merkitty karttaan keltaisilla ja punaisilla pisteillä.

Aseta hiiri pisteen päälle nähdäksesi sääaseman nimen.

Klikkaa sitten nähdäksesi säähavainnot ja -ennusteet.

Kartan vaihtaminen: klikkaa mustalla rastilla varustettuja vihreitä pisteitä, niin voit zoomata sisään; viivalla varustettua vihreää pistettä, niin voit zoomata ulos tai vihreitä nuolia, niin pääset viereisille kartoille.


METAR-TAF: